Time;durP1;ratioP1;P1;durP2;ratioP2;P2;SDS_P1;SDS_P2;PMS_P1;PMS_P2;Temp;Humidity;BMP_temperature;BMP_pressure;BME280_temperature;BME280_humidity;BME280_pressure;Samples;Min_cycle;Max_cycle;Signal;HPM_P1;HPM_P2
2023/02/09 00:01:12;;;;;;;9.15;3.28;;;;;;;1.75;66.72;102429.09;5011433;28;20044;-70
2023/02/09 00:03:39;;;;;;;7.78;3.88;;;;;;;1.70;66.29;102407.41;5014135;28;20044;-70
2023/02/09 00:06:08;;;;;;;6.82;2.83;;;;;;;1.74;66.43;102418.75;5008452;28;20723;-71
2023/02/09 00:08:36;;;;;;;6.90;2.53;;;;;;;1.73;66.62;102404.94;5007107;28;20065;-71
2023/02/09 00:11:08;;;;;;;6.68;2.78;;;;;;;1.72;66.41;102407.47;5013241;28;20050;-70
2023/02/09 00:13:34;;;;;;;7.75;2.80;;;;;;;1.70;66.47;102393.63;5011217;28;20052;-71
2023/02/09 00:16:01;;;;;;;6.20;2.38;;;;;;;1.69;66.46;102397.03;5014677;28;20064;-71
2023/02/09 00:18:30;;;;;;;5.15;2.20;;;;;;;1.69;66.34;102391.88;5013910;28;20038;-70
2023/02/09 00:20:57;;;;;;;8.80;2.63;;;;;;;1.67;66.02;102385.78;5007687;28;20060;-71
2023/02/09 00:23:25;;;;;;;4.35;2.47;;;;;;;1.65;65.79;102374.53;5007977;28;20046;-71
2023/02/09 00:25:52;;;;;;;5.22;2.50;;;;;;;1.65;65.97;102384.81;5016104;28;20686;-71
2023/02/09 00:28:21;;;;;;;6.65;2.53;;;;;;;1.62;65.76;102372.69;5008607;28;21207;-71
2023/02/09 00:30:48;;;;;;;4.47;1.90;;;;;;;1.61;65.71;102378.66;5010229;28;20401;-71
2023/02/09 00:33:15;;;;;;;5.75;1.90;;;;;;;1.59;65.52;102364.81;5012379;28;20678;-71
2023/02/09 00:35:42;;;;;;;6.38;1.40;;;;;;;1.59;66.06;102364.81;5007223;28;20603;-71
2023/02/09 00:38:09;;;;;;;3.92;2.30;;;;;;;1.58;65.28;102356.22;5015076;28;20176;-71
2023/02/09 00:40:37;;;;;;;4.90;1.90;;;;;;;1.53;64.98;102355.13;5016121;28;21113;-71
2023/02/09 00:43:04;;;;;;;8.38;1.92;;;;;;;1.56;65.02;102370.72;5014112;28;20441;-71
2023/02/09 00:45:32;;;;;;;7.50;1.85;;;;;;;1.56;64.65;102359.53;5014589;28;20045;-71
2023/02/09 00:47:59;;;;;;;2.85;1.33;;;;;;;1.56;64.05;102359.53;5010967;28;20049;-71
2023/02/09 00:50:28;;;;;;;3.90;1.50;;;;;;;1.53;64.50;102357.72;5016936;28;20052;-76
2023/02/09 00:52:55;;;;;;;3.85;1.40;;;;;;;1.53;64.13;102354.25;5013222;28;20049;-71
2023/02/09 00:55:22;;;;;;;6.93;1.85;;;;;;;1.52;64.24;102363.69;5017272;28;20667;-70
2023/02/09 00:57:49;;;;;;;4.45;1.67;;;;;;;1.51;63.91;102351.63;5013640;28;20037;-71
2023/02/09 01:00:16;;;;;;;3.80;1.77;;;;;;;1.50;63.61;102334.41;5016376;28;20728;-72
2023/02/09 01:02:45;;;;;;;4.50;1.92;;;;;;;1.48;64.28;102341.22;5017243;28;20533;-71
2023/02/09 01:05:12;;;;;;;4.03;1.25;;;;;;;1.48;63.94;102336.06;5017369;28;20053;-71
2023/02/09 01:07:38;;;;;;;3.50;1.25;;;;;;;1.43;63.88;102329.81;5013560;28;20056;-70
2023/02/09 01:10:06;;;;;;;3.53;1.42;;;;;;;1.48;63.54;102336.06;5014616;28;20052;-71
2023/02/09 01:12:33;;;;;;;5.55;1.38;;;;;;;1.47;63.54;102334.28;5013054;28;20068;-71
2023/02/09 01:15:01;;;;;;;3.90;1.40;;;;;;;1.40;62.74;102311.66;5010800;28;20049;-71
2023/02/09 01:17:28;;;;;;;5.57;1.25;;;;;;;1.42;63.65;102309.13;5016739;28;20045;-70
2023/02/09 01:19:56;;;;;;;5.93;1.02;;;;;;;1.44;63.09;102310.97;5013832;28;20049;-70
2023/02/09 01:22:23;;;;;;;3.90;1.70;;;;;;;1.41;63.63;102303.13;5014331;28;20586;-71
2023/02/09 01:24:50;;;;;;;2.95;1.23;;;;;;;1.44;62.79;102290.38;5012874;28;20046;-70
2023/02/09 01:27:17;;;;;;;1.83;1.00;;;;;;;1.42;62.48;102278.25;5016731;28;20046;-71
2023/02/09 01:29:44;;;;;;;2.40;1.13;;;;;;;1.43;61.91;102278.31;5019162;28;20053;-71
2023/02/09 01:32:11;;;;;;;1.80;0.93;;;;;;;1.42;62.80;102262.78;5014542;28;20582;-70
2023/02/09 01:34:38;;;;;;;3.78;0.90;;;;;;;1.42;62.89;102263.66;5013964;28;20076;-70
2023/02/09 01:37:07;;;;;;;6.68;1.02;;;;;;;1.42;62.26;102255.94;5016070;28;20517;-70
2023/02/09 01:39:34;;;;;;;3.90;1.10;;;;;;;1.42;62.51;102247.34;5012959;28;20281;-71
2023/02/09 01:42:02;;;;;;;4.22;1.42;;;;;;;1.41;61.41;102245.59;5014603;28;20050;-71
2023/02/09 01:45:05;;;;;;;4.15;1.25;;;;;;;1.40;62.03;102244.72;5015346;28;20636;-70
2023/02/09 01:47:32;;;;;;;2.58;0.77;;;;;;;1.40;61.91;102249.00;5012931;28;20490;-70
2023/02/09 01:49:59;;;;;;;6.50;1.50;;;;;;;1.40;62.09;102238.69;5014933;28;20060;-71
2023/02/09 01:52:29;;;;;;;4.57;1.27;;;;;;;1.41;61.57;102235.28;5016254;28;20060;-71
2023/02/09 01:55:01;;;;;;;3.15;1.00;;;;;;;1.41;61.79;102236.16;5010613;28;20528;-71
2023/02/09 01:57:32;;;;;;;2.70;1.52;;;;;;;1.41;62.37;102236.16;5012187;28;20057;-71
2023/02/09 02:00:05;;;;;;;2.88;0.90;;;;;;;1.41;61.44;102241.31;5013869;28;20037;-70
2023/02/09 02:02:32;;;;;;;3.03;1.02;;;;;;;1.41;61.54;102235.28;5014868;28;20050;-71
2023/02/09 02:04:59;;;;;;;2.63;0.95;;;;;;;1.41;61.25;102227.56;5018678;28;20056;-71
2023/02/09 02:07:33;;;;;;;3.67;1.15;;;;;;;1.41;60.99;102228.44;5016645;28;20050;-71
2023/02/09 02:10:01;;;;;;;4.32;0.90;;;;;;;1.40;61.13;102218.97;5014200;28;20721;-71
2023/02/09 02:12:28;;;;;;;3.70;0.80;;;;;;;1.39;61.83;102211.16;5011223;28;20478;-70
2023/02/09 02:14:55;;;;;;;2.08;0.90;;;;;;;1.41;60.92;102210.41;5012887;28;20049;-70
2023/02/09 02:17:32;;;;;;;3.92;1.23;;;;;;;1.41;61.05;102197.53;5016754;28;20060;-70
2023/02/09 02:20:59;;;;;;;5.85;0.98;;;;;;;1.41;61.86;102197.53;5016327;28;20734;-70
2023/02/09 02:23:35;;;;;;;2.95;0.73;;;;;;;1.40;61.23;102188.06;4979820;28;20073;-71
2023/02/09 02:26:50;;;;;;;4.13;1.05;;;;;;;1.41;61.85;102178.66;4982826;28;20054;-70
2023/02/09 02:29:36;;;;;;;2.78;0.80;;;;;;;1.39;60.93;102177.69;5011345;28;20050;-70
2023/02/09 02:32:16;;;;;;;2.58;0.90;;;;;;;1.39;60.99;102173.41;5013932;28;20049;-71
2023/02/09 02:34:50;;;;;;;4.47;1.20;;;;;;;1.35;60.43;102151.81;5013408;28;20446;-70
2023/02/09 02:37:35;;;;;;;3.85;1.42;;;;;;;1.37;61.01;102162.19;5017149;28;20046;-71
2023/02/09 02:40:11;;;;;;;3.97;1.20;;;;;;;1.39;60.77;102155.41;5015571;28;20053;-70
2023/02/09 02:42:51;;;;;;;4.28;1.55;;;;;;;1.39;61.29;102145.09;5016384;28;20645;-71
2023/02/09 02:45:26;;;;;;;5.20;0.93;;;;;;;1.40;60.81;102159.75;5015080;28;20114;-71
2023/02/09 02:48:03;;;;;;;3.00;0.77;;;;;;;1.40;60.10;102157.19;5016448;28;20060;-71
2023/02/09 02:50:32;;;;;;;2.00;0.80;;;;;;;1.40;60.51;102156.31;5016731;28;20142;-70
2023/02/09 02:53:03;;;;;;;4.20;1.05;;;;;;;1.31;60.43;102134.50;5019889;28;20056;-71
2023/02/09 02:55:33;;;;;;;2.85;1.23;;;;;;;1.40;60.88;102144.31;5016018;28;20679;-70
2023/02/09 02:58:05;;;;;;;5.60;1.20;;;;;;;1.38;60.41;102130.47;5013995;28;20046;-70
2023/02/09 03:00:36;;;;;;;3.10;0.85;;;;;;;1.39;60.42;102127.06;5017031;28;20050;-71
2023/02/09 03:03:11;;;;;;;3.30;1.20;;;;;;;1.41;60.47;102124.56;5019067;28;20041;-71
2023/02/09 03:05:38;;;;;;;1.90;0.83;;;;;;;1.40;59.95;102118.56;5023344;28;20042;-71
2023/02/09 03:08:05;;;;;;;2.90;0.88;;;;;;;1.41;60.32;102094.56;5018068;28;20283;-70
2023/02/09 03:10:33;;;;;;;3.53;1.33;;;;;;;1.40;60.60;102100.53;5017759;28;21327;-71
2023/02/09 03:13:25;;;;;;;4.90;1.48;;;;;;;1.33;59.97;102083.94;5017498;28;20108;-71
2023/02/09 03:16:05;;;;;;;2.42;1.15;;;;;;;1.40;59.47;102104.81;5016661;28;20045;-70
2023/02/09 03:18:43;;;;;;;6.75;1.27;;;;;;;1.35;59.25;102089.16;5016894;28;20056;-71
2023/02/09 03:21:17;;;;;;;3.38;1.20;;;;;;;1.39;58.97;102083.31;5019822;28;20046;-72
2023/02/09 03:23:49;;;;;;;3.00;1.10;;;;;;;1.38;59.09;102081.56;5015671;28;20042;-70
2023/02/09 03:26:20;;;;;;;5.63;1.00;;;;;;;1.39;60.21;102077.28;5021837;28;20045;-71
2023/02/09 03:28:52;;;;;;;5.78;1.20;;;;;;;1.40;59.35;102072.22;5016527;28;20072;-71
2023/02/09 03:31:20;;;;;;;6.18;1.55;;;;;;;1.40;59.54;102058.47;5021840;28;20059;-71
2023/02/09 03:33:49;;;;;;;5.45;1.40;;;;;;;1.32;59.60;102040.13;5014516;28;20047;-71
2023/02/09 03:36:20;;;;;;;4.90;1.80;;;;;;;1.41;59.36;102050.78;5023473;28;20049;-70
2023/02/09 03:38:46;;;;;;;4.63;1.42;;;;;;;1.40;59.13;102038.75;5019269;28;20041;-70
2023/02/09 03:41:13;;;;;;;6.05;1.90;;;;;;;1.40;59.43;102043.88;5021180;28;20698;-70
2023/02/09 03:46:24;;;;;;;8.73;2.17;;;;;;;1.40;59.24;102043.88;5014980;28;20128;-70
2023/02/09 03:48:53;;;;;;;3.85;1.92;;;;;;;1.31;58.94;102023.81;5022147;28;20042;-71
2023/02/09 03:51:20;;;;;;;6.65;2.30;;;;;;;1.39;59.61;102042.13;5019609;28;20060;-70
2023/02/09 03:53:47;;;;;;;4.88;1.48;;;;;;;1.40;59.15;102038.75;5017408;28;20050;-71
2023/02/09 03:56:14;;;;;;;5.05;1.83;;;;;;;1.40;59.18;102043.88;5020318;28;20042;-70
2023/02/09 03:58:41;;;;;;;4.50;1.48;;;;;;;1.41;58.60;102030.19;5019283;28;20516;-74
2023/02/09 04:01:09;;;;;;;4.30;1.60;;;;;;;1.40;58.45;102023.28;5028982;28;20049;-80
2023/02/09 04:03:38;;;;;;;8.93;2.60;;;;;;;1.41;59.01;102012.16;5026936;28;20497;-80
2023/02/09 04:06:08;;;;;;;6.95;3.10;;;;;;;1.42;58.89;102018.19;5025645;28;20475;-80
2023/02/09 04:08:36;;;;;;;4.75;1.67;;;;;;;1.41;58.25;101994.16;5030909;28;20397;-81
2023/02/09 04:11:03;;;;;;;6.25;2.25;;;;;;;1.41;58.02;101999.28;5023316;28;20405;-80
2023/02/09 04:13:30;;;;;;;6.00;2.35;;;;;;;1.35;58.06;101978.47;5023460;28;20412;-80
2023/02/09 04:15:57;;;;;;;5.97;1.95;;;;;;;1.42;58.78;101984.72;5042480;28;20051;-80
2023/02/09 04:18:24;;;;;;;6.88;2.58;;;;;;;1.42;58.08;101988.16;5044786;28;20049;-80
2023/02/09 04:20:51;;;;;;;4.50;2.58;;;;;;;1.44;58.33;101995.97;5022402;28;20048;-80
2023/02/09 04:23:19;;;;;;;9.20;3.20;;;;;;;1.44;58.41;101973.66;5021205;28;20050;-80
2023/02/09 04:25:46;;;;;;;12.02;2.70;;;;;;;1.44;58.61;101989.09;5026836;28;20042;-80
2023/02/09 04:28:13;;;;;;;7.82;2.85;;;;;;;1.45;58.21;101979.69;5040516;28;20489;-80
2023/02/09 04:30:42;;;;;;;7.70;2.30;;;;;;;1.46;58.60;101978.88;5032847;28;20060;-79
2023/02/09 04:33:09;;;;;;;8.60;2.88;;;;;;;1.46;57.59;101974.59;5027306;28;20099;-81
2023/02/09 04:35:36;;;;;;;7.75;3.65;;;;;;;1.46;58.36;101977.19;5035281;28;20680;-80
2023/02/09 04:38:03;;;;;;;8.10;2.28;;;;;;;1.46;58.84;101972.03;5035679;28;20053;-80
2023/02/09 04:40:32;;;;;;;6.85;2.78;;;;;;;1.48;58.77;101967.81;5043460;28;20367;-79
2023/02/09 04:42:59;;;;;;;12.07;3.38;;;;;;;1.48;58.54;101972.97;5028384;28;20478;-80
2023/02/09 04:45:26;;;;;;;6.65;3.33;;;;;;;1.48;58.90;101962.69;5035551;28;20055;-80
2023/02/09 04:47:53;;;;;;;8.70;3.40;;;;;;;1.49;58.34;101967.00;5022838;28;20389;-80
2023/02/09 04:50:20;;;;;;;7.78;3.20;;;;;;;1.49;58.42;101961.84;5029392;28;20057;-80
2023/02/09 04:52:47;;;;;;;9.50;3.45;;;;;;;1.48;58.62;101967.81;5026514;28;20045;-80
2023/02/09 04:55:13;;;;;;;10.98;2.85;;;;;;;1.40;59.06;101942.63;5026729;28;20052;-80
2023/02/09 05:00:26;;;;;;;10.10;4.60;;;;;;;1.48;58.01;101943.75;5029206;28;20489;-79
2023/02/09 05:02:54;;;;;;;10.20;3.60;;;;;;;1.47;58.86;101949.72;5032624;28;20051;-80
2023/02/09 05:05:21;;;;;;;7.63;3.17;;;;;;;1.48;59.25;101942.06;5028505;28;20051;-80
2023/02/09 05:07:48;;;;;;;8.15;3.63;;;;;;;1.48;59.04;101934.34;5033955;28;20052;-80
2023/02/09 05:10:15;;;;;;;10.82;4.53;;;;;;;1.48;59.02;101925.72;5034090;28;20049;-81
2023/02/09 05:12:44;;;;;;;12.25;5.40;;;;;;;1.48;58.16;101934.34;5033797;28;20053;-80
2023/02/09 05:15:11;;;;;;;8.07;4.03;;;;;;;1.46;58.76;101923.09;5031386;28;20055;-80
2023/02/09 05:17:38;;;;;;;9.48;4.03;;;;;;;1.41;58.34;101916.03;5029868;28;20045;-80
2023/02/09 05:20:06;;;;;;;14.02;4.00;;;;;;;1.47;59.14;101922.28;5028261;28;20545;-79
2023/02/09 05:22:33;;;;;;;12.57;4.63;;;;;;;1.49;59.46;101919.78;5020191;28;20044;-79
2023/02/09 05:25:00;;;;;;;8.77;3.60;;;;;;;1.48;59.57;101907.69;5027713;28;20055;-79
2023/02/09 05:27:27;;;;;;;8.60;2.63;;;;;;;1.48;59.40;101921.47;5028046;28;20474;-80
2023/02/09 05:29:55;;;;;;;13.57;4.13;;;;;;;1.49;58.45;101899.16;5025055;28;20053;-80
2023/02/09 05:32:22;;;;;;;12.73;4.18;;;;;;;1.51;58.40;101897.53;5031244;28;20045;-81
2023/02/09 05:34:49;;;;;;;12.50;4.40;;;;;;;1.51;58.24;101897.53;5032214;28;20505;-79
2023/02/09 05:37:16;;;;;;;10.27;3.72;;;;;;;1.49;58.06;101888.88;5035310;28;20045;-79
2023/02/09 05:39:43;;;;;;;13.02;3.97;;;;;;;1.53;58.49;101901.91;5029549;28;20045;-80
2023/02/09 05:42:15;;;;;;;12.02;3.65;;;;;;;1.53;58.70;101896.75;5030257;28;20059;-79
2023/02/09 05:44:42;;;;;;;11.98;3.75;;;;;;;1.54;59.02;101895.94;5033414;28;20052;-80
2023/02/09 05:47:12;;;;;;;11.93;3.38;;;;;;;1.56;58.96;101898.56;5025453;28;20045;-80
2023/02/09 05:49:39;;;;;;;12.57;4.70;;;;;;;1.57;58.77;101897.75;5030860;28;20053;-80
2023/02/09 05:52:06;;;;;;;12.35;4.82;;;;;;;1.58;58.08;101895.22;5020834;28;20050;-80
2023/02/09 05:54:33;;;;;;;11.85;4.05;;;;;;;1.58;59.07;101895.22;5018126;28;20805;-80
2023/02/09 05:57:01;;;;;;;13.95;3.58;;;;;;;1.62;58.28;101895.34;5026778;28;20068;-79
2023/02/09 05:59:28;;;;;;;11.02;4.20;;;;;;;1.63;58.52;101900.56;5023437;28;20050;-80
2023/02/09 06:01:55;;;;;;;11.60;3.58;;;;;;;1.65;59.12;101904.06;5031559;28;20051;-80
2023/02/09 06:04:23;;;;;;;11.43;4.93;;;;;;;1.64;58.52;101893.69;5022632;28;20050;-80
2023/02/09 06:06:50;;;;;;;12.27;4.38;;;;;;;1.65;58.68;101867.09;5024849;28;20494;-80
2023/02/09 06:09:18;;;;;;;13.38;2.35;;;;;;;1.69;58.93;101884.44;5019140;28;20042;-80
2023/02/09 06:11:44;;;;;;;13.43;4.53;;;;;;;1.66;58.50;101863.72;5027739;28;20050;-81
2023/02/09 06:14:12;;;;;;;14.52;4.43;;;;;;;1.70;58.06;101871.59;5019775;28;20049;-80
2023/02/09 06:16:40;;;;;;;21.05;5.40;;;;;;;1.71;58.93;101867.34;5026634;28;20045;-78
2023/02/09 06:19:07;;;;;;;14.85;5.13;;;;;;;1.71;58.69;101855.34;5034017;28;20046;-79
2023/02/09 06:21:36;;;;;;;10.43;4.10;;;;;;;1.72;58.32;101872.53;5031882;28;20052;-78
2023/02/09 06:24:03;;;;;;;13.85;4.65;;;;;;;1.73;58.00;101853.66;5029412;28;20048;-79
2023/02/09 06:26:30;;;;;;;11.07;4.45;;;;;;;1.75;58.85;101852.03;5034779;28;20050;-78
2023/02/09 06:28:56;;;;;;;9.43;4.60;;;;;;;1.73;58.54;101838.22;5033452;28;20045;-79
2023/02/09 06:31:23;;;;;;;11.63;4.57;;;;;;;1.73;58.91;101842.50;5032578;28;20045;-78
2023/02/09 06:33:51;;;;;;;11.73;3.90;;;;;;;1.77;58.37;101844.38;5029943;28;20075;-78
2023/02/09 06:36:18;;;;;;;13.35;4.93;;;;;;;1.79;58.35;101835.88;5028996;28;20046;-79
2023/02/09 06:38:46;;;;;;;14.38;3.33;;;;;;;1.81;58.70;101835.91;5029685;28;20046;-82
2023/02/09 06:41:13;;;;;;;16.15;7.75;;;;;;;1.81;58.06;101833.34;5025224;28;20120;-83
2023/02/09 06:43:40;;;;;;;14.52;4.78;;;;;;;1.83;58.67;101846.28;5024912;28;20058;-82
2023/02/09 06:46:08;;;;;;;15.20;4.38;;;;;;;1.83;58.26;101829.13;5023584;28;20049;-83
2023/02/09 06:48:35;;;;;;;14.93;5.25;;;;;;;1.85;58.83;101832.63;5029512;28;20076;-83
2023/02/09 06:51:02;;;;;;;14.38;4.95;;;;;;;1.77;58.54;101818.63;5029340;28;20045;-82
2023/02/09 06:53:28;;;;;;;14.77;4.82;;;;;;;1.86;57.74;101808.63;5031320;28;20046;-82
2023/02/09 06:56:01;;;;;;;15.32;5.60;;;;;;;1.84;58.10;101824.84;5030604;28;20052;-82
2023/02/09 06:58:28;;;;;;;9.68;4.25;;;;;;;1.87;58.64;101822.38;5015379;28;20054;-83
2023/02/09 07:00:55;;;;;;;13.18;5.05;;;;;;;1.88;58.79;101817.28;5032034;28;20042;-83
2023/02/09 07:03:22;;;;;;;13.63;5.55;;;;;;;1.90;58.11;101820.75;5023550;28;20046;-82
2023/02/09 07:05:49;;;;;;;11.63;5.30;;;;;;;1.89;58.53;101829.31;5029223;28;20056;-83
2023/02/09 07:08:16;;;;;;;14.57;5.97;;;;;;;1.91;58.62;101830.25;5020515;28;20060;-83
2023/02/09 07:10:43;;;;;;;11.13;5.70;;;;;;;1.92;58.62;101823.41;5027312;28;20052;-83
2023/02/09 07:13:11;;;;;;;11.90;5.75;;;;;;;1.92;58.55;101816.53;5031182;28;20048;-83
2023/02/09 07:15:39;;;;;;;15.77;4.85;;;;;;;1.92;58.71;101816.53;5024904;28;20042;-82
2023/02/09 07:18:06;;;;;;;15.73;5.35;;;;;;;1.93;58.76;101807.09;5043341;28;20375;-82
2023/02/09 07:20:33;;;;;;;13.85;5.32;;;;;;;1.95;58.39;101802.88;5037772;28;20505;-83
2023/02/09 07:23:01;;;;;;;12.52;5.22;;;;;;;1.94;58.36;101785.69;5042233;28;20060;-83
2023/02/09 07:25:27;;;;;;;11.68;4.80;;;;;;;1.96;58.04;101797.81;5020478;28;20108;-81
2023/02/09 07:27:54;;;;;;;18.38;7.30;;;;;;;1.97;58.36;101780.63;5032338;28;20052;-82
2023/02/09 07:30:23;;;;;;;13.93;5.75;;;;;;;1.96;58.59;101787.50;5031823;28;20045;-83
2023/02/09 07:32:50;;;;;;;13.02;4.97;;;;;;;1.97;58.20;101776.34;5029409;28;20057;-83
2023/02/09 07:35:17;;;;;;;12.77;5.07;;;;;;;1.98;58.20;101780.66;5031975;28;20049;-82
2023/02/09 07:37:44;;;;;;;13.95;4.72;;;;;;;1.99;58.71;101789.28;5018913;28;20046;-82
2023/02/09 07:40:11;;;;;;;11.65;5.53;;;;;;;1.99;58.06;101790.16;5024109;28;20042;-82
2023/02/09 07:42:38;;;;;;;17.05;5.30;;;;;;;2.00;58.58;101786.75;5023400;28;20049;-82
2023/02/09 07:45:06;;;;;;;15.82;6.70;;;;;;;2.02;58.61;101790.28;5029870;28;20064;-83
2023/02/09 07:47:37;;;;;;;13.25;6.15;;;;;;;2.03;57.93;101767.94;5032266;28;20556;-83
2023/02/09 07:50:05;;;;;;;12.77;4.78;;;;;;;2.03;58.46;101792.00;5034706;28;20099;-82
2023/02/09 07:52:32;;;;;;;17.00;7.50;;;;;;;2.04;58.10;101782.56;5033005;28;20053;-82
2023/02/09 07:54:59;;;;;;;15.70;5.97;;;;;;;2.05;57.83;101788.59;5034084;28;20049;-82
2023/02/09 07:57:27;;;;;;;12.20;4.60;;;;;;;2.06;57.76;101790.38;5029055;28;20048;-82
2023/02/09 07:59:54;;;;;;;12.15;5.00;;;;;;;2.06;58.14;101786.09;5029045;28;20050;-83
2023/02/09 08:02:28;;;;;;;13.57;4.95;;;;;;;2.08;58.00;101774.13;5024775;28;20045;-82
2023/02/09 08:04:59;;;;;;;12.60;5.25;;;;;;;2.08;57.85;101768.06;5028042;28;20046;-82
2023/02/09 08:07:27;;;;;;;15.57;6.50;;;;;;;2.09;57.91;101764.69;5032696;28;20815;-83
2023/02/09 08:09:54;;;;;;;12.05;4.95;;;;;;;2.10;57.87;101761.28;5030754;28;20054;-83
2023/02/09 08:12:58;;;;;;;16.42;5.57;;;;;;;2.10;57.85;101758.69;5045763;28;20087;-83
2023/02/09 08:15:13;;;;;;;17.75;5.20;;;;;;;2.09;56.81;101760.41;5027577;28;20405;-83
2023/02/09 08:17:41;;;;;;;18.13;5.43;;;;;;;2.10;57.31;101756.13;5024950;28;20049;-83
2023/02/09 08:20:14;;;;;;;10.45;5.22;;;;;;;2.12;57.69;101745.03;5028318;28;20041;-82
2023/02/09 08:22:45;;;;;;;15.65;5.68;;;;;;;2.12;57.28;101742.47;5032319;28;20060;-83
2023/02/09 08:25:14;;;;;;;12.07;5.10;;;;;;;2.14;57.90;101735.66;5022070;28;20556;-82
2023/02/09 08:27:43;;;;;;;13.05;5.57;;;;;;;2.12;57.73;101733.84;5029236;28;20257;-83
2023/02/09 08:30:11;;;;;;;15.32;5.35;;;;;;;2.16;57.80;101728.84;5028561;28;20037;-82
2023/02/09 08:32:38;;;;;;;14.40;5.03;;;;;;;2.16;57.74;101725.38;5032499;28;20055;-82
2023/02/09 08:35:05;;;;;;;15.45;5.35;;;;;;;2.18;57.27;101713.41;5023182;28;20056;-82
2023/02/09 08:37:34;;;;;;;12.27;6.03;;;;;;;2.19;57.82;101720.31;5021828;28;20041;-82
2023/02/09 08:40:01;;;;;;;10.68;5.05;;;;;;;2.18;57.52;101713.41;5031382;28;20063;-82
2023/02/09 08:42:28;;;;;;;19.00;5.85;;;;;;;2.19;57.04;101715.16;5019051;28;20056;-82
2023/02/09 08:44:55;;;;;;;16.60;5.53;;;;;;;2.20;56.86;101710.06;5025873;28;20056;-82
2023/02/09 08:47:22;;;;;;;13.20;5.60;;;;;;;2.21;57.08;101718.66;5024473;28;20080;-81
2023/02/09 08:49:50;;;;;;;13.75;4.90;;;;;;;2.22;57.01;101715.25;5025235;28;20056;-82
2023/02/09 08:52:17;;;;;;;16.35;5.40;;;;;;;2.23;57.02;101722.19;5024450;28;20058;-82
2023/02/09 08:54:45;;;;;;;15.90;4.93;;;;;;;2.24;57.28;101723.91;5026616;28;20052;-82
2023/02/09 08:57:12;;;;;;;13.20;4.57;;;;;;;2.24;56.65;101713.59;5033379;28;20058;-82
2023/02/09 08:59:39;;;;;;;15.27;5.78;;;;;;;2.25;57.30;101721.41;5027436;28;20121;-82
2023/02/09 09:02:06;;;;;;;17.17;7.57;;;;;;;2.27;57.40;101725.72;5023824;28;20064;-82
2023/02/09 09:04:33;;;;;;;11.93;3.65;;;;;;;2.28;57.59;101725.78;5029160;28;20049;-82
2023/02/09 09:07:00;;;;;;;12.07;5.13;;;;;;;2.29;57.33;101726.66;5031788;28;20060;-82
2023/02/09 09:09:27;;;;;;;14.20;5.45;;;;;;;2.29;56.56;101727.50;5030348;28;20163;-82
2023/02/09 09:11:56;;;;;;;11.07;4.32;;;;;;;2.30;56.78;101725.81;5036052;28;20053;-82
2023/02/09 09:14:25;;;;;;;9.38;3.65;;;;;;;2.32;57.09;101737.91;5024150;28;20071;-82
2023/02/09 09:16:52;;;;;;;14.15;5.20;;;;;;;2.31;56.58;101736.19;5034336;28;20049;-82
2023/02/09 09:19:19;;;;;;;13.50;4.22;;;;;;;2.33;56.68;101746.53;5032532;28;20064;-82
2023/02/09 09:21:46;;;;;;;15.05;4.47;;;;;;;2.33;56.96;101734.50;5025672;28;20046;-82
2023/02/09 09:24:12;;;;;;;11.35;4.32;;;;;;;2.31;56.82;101725.88;5030926;28;20060;-83
2023/02/09 09:26:39;;;;;;;14.75;5.43;;;;;;;2.35;56.87;101732.84;5033439;28;20045;-82
2023/02/09 09:29:09;;;;;;;7.97;3.38;;;;;;;2.36;56.44;101728.56;5035782;28;20048;-82
2023/02/09 09:31:37;;;;;;;9.95;4.03;;;;;;;2.37;55.78;101727.75;5029501;28;20060;-82
2023/02/09 09:34:04;;;;;;;15.77;5.13;;;;;;;2.36;55.78;101734.63;5033976;28;20045;-82
2023/02/09 09:36:31;;;;;;;10.45;3.15;;;;;;;2.36;56.00;101734.63;5039065;28;20052;-83
2023/02/09 09:38:58;;;;;;;11.98;4.53;;;;;;;2.36;56.43;101719.16;5031624;28;20057;-82
2023/02/09 09:41:30;;;;;;;12.27;4.47;;;;;;;2.33;56.46;101719.03;5025690;28;20048;-83
2023/02/09 09:43:58;;;;;;;15.23;4.78;;;;;;;2.25;55.77;101692.19;5033763;28;20076;-82
2023/02/09 09:46:35;;;;;;;11.18;4.20;;;;;;;2.39;55.83;101714.09;5038664;28;20058;-82
2023/02/09 09:49:03;;;;;;;12.10;6.95;;;;;;;2.40;55.31;101704.66;5029404;28;20048;-82
2023/02/09 09:51:37;;;;;;;13.23;4.82;;;;;;;2.41;55.65;101701.22;5035054;28;20068;-83
2023/02/09 09:54:07;;;;;;;14.23;4.57;;;;;;;2.38;56.08;101683.97;5033317;28;20052;-82
2023/02/09 09:56:34;;;;;;;10.38;4.15;;;;;;;2.40;55.28;101672.00;5036118;28;20053;-82
2023/02/09 09:59:02;;;;;;;11.10;3.55;;;;;;;2.41;55.97;101660.84;5035551;28;20041;-82
2023/02/09 10:01:32;;;;;;;10.50;4.32;;;;;;;2.43;55.64;101640.25;5035214;28;20104;-82
2023/02/09 10:04:02;;;;;;;12.13;4.38;;;;;;;2.37;55.11;101632.34;5025012;28;20111;-83
2023/02/09 10:06:32;;;;;;;16.05;5.78;;;;;;;2.41;55.32;101650.53;5026005;28;20052;-82
2023/02/09 10:09:02;;;;;;;14.32;4.90;;;;;;;2.42;55.08;101641.97;5034917;28;20084;-83
2023/02/09 10:11:36;;;;;;;12.48;4.38;;;;;;;2.43;55.70;101643.72;5025489;28;20528;-81
2023/02/09 10:14:03;;;;;;;13.15;4.40;;;;;;;2.42;55.35;101621.34;5035067;28;20045;-82
2023/02/09 10:16:36;;;;;;;11.15;4.50;;;;;;;2.43;55.18;101628.25;5031426;28;20576;-82
2023/02/09 10:19:05;;;;;;;10.10;4.65;;;;;;;2.44;54.97;101623.94;5034986;28;20081;-82
2023/02/09 10:21:35;;;;;;;7.95;3.17;;;;;;;2.45;55.65;101626.59;5030309;28;20064;-83
2023/02/09 10:24:12;;;;;;;12.63;4.28;;;;;;;2.46;55.74;101624.88;5030458;28;20100;-83
2023/02/09 10:26:43;;;;;;;12.48;4.80;;;;;;;2.45;55.53;101636.03;5035418;28;20042;-82
2023/02/09 10:29:23;;;;;;;13.10;4.90;;;;;;;2.45;55.43;101626.59;5027409;28;20741;-83
2023/02/09 10:31:59;;;;;;;12.02;5.07;;;;;;;2.44;55.55;101623.94;5034198;28;20063;-82
2023/02/09 10:34:32;;;;;;;16.20;5.78;;;;;;;2.48;55.06;101616.34;5029978;28;20041;-82
2023/02/09 10:37:27;;;;;;;14.65;4.68;;;;;;;2.48;55.18;101592.28;5034067;28;20457;-82
2023/02/09 10:40:00;;;;;;;13.95;5.25;;;;;;;2.48;54.99;101595.72;5026415;28;20053;-82
2023/02/09 10:42:30;;;;;;;19.02;5.85;;;;;;;2.50;54.73;101594.88;5034143;28;20042;-82
2023/02/09 10:45:04;;;;;;;14.35;4.78;;;;;;;2.48;54.96;101593.16;5030322;28;20062;-81
2023/02/09 10:47:32;;;;;;;12.38;5.32;;;;;;;2.51;54.85;101588.91;5035203;28;20102;-82
2023/02/09 10:50:15;;;;;;;12.40;4.70;;;;;;;2.53;55.14;101597.53;5034017;28;20046;-82
2023/02/09 10:52:54;;;;;;;13.60;4.30;;;;;;;2.54;55.12;101591.56;5036704;28;20136;-82
2023/02/09 10:55:24;;;;;;;15.27;4.25;;;;;;;2.54;55.32;101584.69;5024347;28;20100;-82
2023/02/09 10:57:51;;;;;;;15.35;4.93;;;;;;;2.56;55.51;101582.16;5022631;28;20045;-82
2023/02/09 11:00:32;;;;;;;14.25;5.38;;;;;;;2.54;55.19;101576.09;5028509;28;20043;-83
2023/02/09 11:03:01;;;;;;;13.07;4.72;;;;;;;2.59;55.66;101593.44;5028771;28;20057;-82
2023/02/09 11:05:32;;;;;;;15.23;5.07;;;;;;;2.59;55.93;101587.38;5031108;28;20053;-82
2023/02/09 11:08:05;;;;;;;13.13;4.72;;;;;;;2.61;55.74;101581.44;5022117;28;20496;-82
2023/02/09 11:10:37;;;;;;;12.52;4.90;;;;;;;2.62;55.33;101582.34;5019980;28;20049;-82
2023/02/09 11:13:17;;;;;;;14.73;5.20;;;;;;;2.62;55.38;101572.91;5029690;28;20053;-83
2023/02/09 11:15:56;;;;;;;9.85;4.00;;;;;;;2.63;55.75;101577.22;5020782;28;20049;-82
2023/02/09 11:18:26;;;;;;;14.85;5.50;;;;;;;2.64;55.57;101560.03;5029183;28;20045;-82
2023/02/09 11:21:02;;;;;;;13.60;5.75;;;;;;;2.60;55.59;101563.38;5030749;28;20045;-82
2023/02/09 11:23:38;;;;;;;20.90;5.50;;;;;;;2.65;55.51;101567.81;5033559;28;20053;-82
2023/02/09 11:26:13;;;;;;;12.88;5.00;;;;;;;2.67;55.09;101560.09;5021696;28;20058;-82
2023/02/09 11:28:52;;;;;;;12.60;4.90;;;;;;;2.67;55.30;101566.13;5032334;28;20055;-83
2023/02/09 11:31:45;;;;;;;15.07;4.60;;;;;;;2.69;55.79;101568.75;5032176;28;20050;-82
2023/02/09 11:34:28;;;;;;;12.90;4.97;;;;;;;2.70;55.86;101562.75;5019429;28;20131;-83
2023/02/09 11:37:04;;;;;;;10.45;4.65;;;;;;;2.71;56.23;101543.88;5031497;28;20059;-81
2023/02/09 11:39:43;;;;;;;12.70;5.53;;;;;;;2.72;55.50;101547.34;5026649;28;20041;-82
2023/02/09 11:45:03;;;;;;;11.00;3.97;;;;;;;2.74;56.16;101533.63;5029637;28;20804;-82
2023/02/09 11:47:42;;;;;;;11.55;4.53;;;;;;;2.74;55.70;101535.34;5032679;28;20049;-82
2023/02/09 11:50:15;;;;;;;13.38;4.32;;;;;;;2.74;55.96;101536.22;5025152;28;20042;-82